LIPE/BLQ METAR and TAF weather

Enter ICAO airport designator
Station Type Date Time Source
LIPE METAR 2022/01/26 12:50 UTC NOAA

LIPE 261250Z 28004KT 240V340 6000 SCT015 07/04 Q1027


Station Type Date Time Source
LIPE Decoded METAR 2022/01/26 12:50 UTC NOAA

Bologna / Borgo Panigale, Italy (LIPE) 44-32N 011-18E 49M
Jan 26, 2022 - 07:50 AM EST / 2022.01.26 1250 UTC
Wind: from the W (280 degrees) at 5 MPH (4 KT) (direction variable):0
Visibility: 3 mile(s):0
Sky conditions: partly cloudy
Temperature: 44 F (7 C)
Dew Point: 39 F (4 C)
Relative Humidity: 81%
Pressure (altimeter): 30.33 in. Hg (1027 hPa)
ob: LIPE 261250Z 28004KT 240V340 6000 SCT015 07/04 Q1027
cycle: 13

Station Type Date Time Source
LIPE TAF 2022/01/26 12:24 UTC NOAA

TAF LIPE 261100Z 2612/2712 VRB05KT 6000 SCT020
BECMG 2614/2616 3000 BR BKN008
BECMG 2619/2621 0300 FZFG OVC001
BECMG 2709/2711 3000 BR BKN008

Example: see airport list